Forside
METAR-TAF:

METAR-TAF

Lufthavne :

Weno, Mikronesien

Breddekreds: 07-28N, længdekreds: 151-51E, højde: 3 m

Aktuelle vejr

Denne rapport blev lavet for 52 minutter siden, kl. 23:50 UTC
Vind 5 kt fra varierende retninger
Temperatur 31°C
Fugtighed 84%
Tryk 1011 hPa
Sigt: 24.1 km
Nogle få skyer i en højde af 1400 ft, Cumulonimbus.
Brudte skyer i en højde af 12000 ft
Overskyet i en højde af 28000 ft

METAR: PTKK 212350Z VRB05KT 15SM FEW014CB BKN120 OVC280 31/28 A2986 RMK SLP111 8/371 T03110282 10311 20261 51008

Tid: 10:42 (00:42 UTC)

Vejrudsigter

Denne rapport blev lavet for 1 time og 6 minutter siden, kl. 23:36 UTC
Foreløbig gælder fra 21 på 00 UTC til 21 på 24 UTC
Vind 5 kt fra sydsydvest
Sigt: 10 km
Spredte skyer i en højde af 1400 ft
Spredte skyer i en højde af 12000 ft
Brudte skyer i en højde af 28000 ft
byger i nærheden

TAF: PTKK 202336Z 2100/2124 21005KT P6SM VCSH SCT014 SCT120 BKN280

Vejrobservationer og prognoser fra mere end 4000 lufthavne (METAR og TAF).

De gule og røde prikker repræsenterer de meteorologiske stationer.

Flyt musen over at se navnet på stationen.

Så klik over at se vejr observationer og prognoser.

At skifte det kort: Klik på de grønne knapper med et sort kors for at zoome ind; på den grønne knap med en bindestreg for at zoome ud; eller på de grønne pile for tilstødende kort.


METAR-TAF: